createdAt,value
2023-04-10T00:01:26.166Z,13.43
2023-04-10T00:03:53.823Z,13.65
2023-04-10T00:06:21.644Z,13.80
2023-04-10T00:08:48.947Z,13.65
2023-04-10T00:11:16.300Z,14.02
2023-04-10T00:13:43.587Z,13.63
2023-04-10T00:16:11.358Z,13.73
2023-04-10T00:18:38.668Z,12.93
2023-04-10T00:21:06.290Z,13.07
2023-04-10T00:23:34.742Z,13.02
2023-04-10T00:26:02.201Z,12.85
2023-04-10T00:28:29.611Z,13.10
2023-04-10T00:30:57.016Z,12.60
2023-04-10T00:33:24.366Z,13.82
2023-04-10T00:35:51.737Z,12.75
2023-04-10T00:38:21.397Z,13.05
2023-04-10T00:40:48.783Z,13.13
2023-04-10T00:43:19.229Z,12.80
2023-04-10T00:45:47.415Z,12.65
2023-04-10T00:48:16.297Z,12.32
2023-04-10T00:50:44.039Z,12.77
2023-04-10T00:53:11.558Z,12.82
2023-04-10T00:55:38.903Z,12.40
2023-04-10T00:58:06.908Z,12.80
2023-04-10T01:00:34.200Z,12.07
2023-04-10T01:03:01.822Z,11.77
2023-04-10T01:05:31.337Z,12.48
2023-04-10T01:08:23.171Z,11.63
2023-04-10T01:10:56.371Z,11.50
2023-04-10T01:13:49.789Z,10.30
2023-04-10T01:16:26.768Z,10.07
2023-04-10T01:19:07.234Z,10.07
2023-04-10T01:21:35.382Z,10.55
2023-04-10T01:24:31.372Z,10.95
2023-04-10T01:27:04.741Z,9.80
2023-04-10T01:29:32.876Z,11.13
2023-04-10T01:32:08.675Z,10.02
2023-04-10T01:34:46.707Z,10.27
2023-04-10T01:37:20.865Z,10.82
2023-04-10T01:39:51.498Z,10.57
2023-04-10T01:42:19.333Z,11.23
2023-04-10T01:44:47.037Z,10.15
2023-04-10T01:47:15.303Z,10.63
2023-04-10T01:49:44.591Z,10.50
2023-04-10T01:52:12.433Z,10.57
2023-04-10T01:54:40.720Z,9.75
2023-04-10T01:57:08.398Z,10.20
2023-04-10T01:59:47.846Z,10.30
2023-04-10T02:02:15.280Z,10.40
2023-04-10T02:04:42.758Z,10.02
2023-04-10T02:07:23.056Z,10.65
2023-04-10T02:10:09.874Z,9.85
2023-04-10T02:12:40.722Z,10.63
2023-04-10T02:15:08.739Z,10.70
2023-04-10T02:17:36.220Z,10.70
2023-04-10T02:20:04.345Z,10.00
2023-04-10T02:22:31.712Z,10.70
2023-04-10T02:24:59.183Z,9.13
2023-04-10T02:27:36.315Z,10.00
2023-04-10T02:30:04.142Z,9.30
2023-04-10T02:32:34.134Z,9.35
2023-04-10T02:35:04.615Z,9.52
2023-04-10T02:37:32.875Z,9.80
2023-04-10T02:40:01.873Z,10.05
2023-04-10T02:42:36.580Z,9.20
2023-04-10T02:45:04.531Z,9.50
2023-04-10T02:47:37.312Z,9.57
2023-04-10T02:50:05.359Z,9.15
2023-04-10T02:52:36.663Z,9.65
2023-04-10T02:55:04.584Z,9.27
2023-04-10T02:57:36.325Z,8.80
2023-04-10T03:00:05.231Z,9.00
2023-04-10T03:02:53.777Z,8.75
2023-04-10T03:05:21.646Z,9.07
2023-04-10T03:07:49.002Z,9.30
2023-04-10T03:10:16.762Z,8.93
2023-04-10T03:12:44.054Z,9.10
2023-04-10T03:15:11.930Z,8.50
2023-04-10T03:17:39.278Z,8.98
2023-04-10T03:20:08.553Z,8.45
2023-04-10T03:22:36.533Z,8.93
2023-04-10T03:25:04.228Z,8.85
2023-04-10T03:27:34.756Z,8.60
2023-04-10T03:30:03.102Z,8.57
2023-04-10T03:32:39.054Z,9.05
2023-04-10T03:35:06.776Z,8.95
2023-04-10T03:37:34.170Z,8.65
2023-04-10T03:40:01.471Z,8.70
2023-04-10T03:42:29.633Z,8.75
2023-04-10T03:44:57.380Z,8.90
2023-04-10T03:47:24.781Z,8.70
2023-04-10T03:49:53.406Z,9.15
2023-04-10T03:52:21.302Z,8.88
2023-04-10T03:54:48.738Z,9.63
2023-04-10T03:57:25.160Z,9.50
2023-04-10T03:59:56.485Z,9.40
2023-04-10T04:02:24.094Z,10.38
2023-04-10T04:04:54.726Z,10.27
2023-04-10T04:07:43.666Z,10.45
2023-04-10T04:10:29.521Z,10.60
2023-04-10T04:13:04.101Z,10.93
2023-04-10T04:15:49.022Z,11.07
2023-04-10T04:18:20.666Z,11.93
2023-04-10T04:20:53.383Z,10.63
2023-04-10T04:23:34.349Z,10.82
2023-04-10T04:26:25.094Z,11.00
2023-04-10T04:29:18.426Z,10.85
2023-04-10T04:32:02.330Z,10.63
2023-04-10T04:34:54.720Z,10.38
2023-04-10T04:37:31.178Z,11.07
2023-04-10T04:40:16.862Z,11.73
2023-04-10T04:42:59.824Z,10.82
2023-04-10T04:45:48.394Z,10.45
2023-04-10T04:48:38.468Z,11.52
2023-04-10T04:51:28.838Z,11.30
2023-04-10T04:54:24.856Z,11.32
2023-04-10T04:57:15.347Z,10.07
2023-04-10T04:59:56.953Z,12.05
2023-04-10T05:02:43.001Z,11.27
2023-04-10T05:05:33.920Z,10.82
2023-04-10T05:08:26.584Z,11.32
2023-04-10T05:11:02.474Z,10.48
2023-04-10T05:13:41.611Z,11.25
2023-04-10T05:16:15.786Z,12.00
2023-04-10T05:19:18.314Z,11.73
2023-04-10T05:22:08.230Z,11.30
2023-04-10T05:25:11.636Z,11.63
2023-04-10T05:27:56.962Z,11.48
2023-04-10T05:30:39.905Z,11.85
2023-04-10T05:33:07.245Z,11.43
2023-04-10T05:35:53.587Z,11.80
2023-04-10T05:38:41.222Z,11.18
2023-04-10T05:41:26.105Z,11.35
2023-04-10T05:44:16.284Z,11.35
2023-04-10T05:47:05.941Z,10.80
2023-04-10T05:49:38.965Z,11.48
2023-04-10T05:52:18.396Z,11.60
2023-04-10T05:55:04.185Z,11.60
2023-04-10T05:57:31.952Z,10.95
2023-04-10T06:00:22.479Z,12.35
2023-04-10T06:03:10.190Z,11.32
2023-04-10T06:05:48.708Z,11.38
2023-04-10T06:08:16.156Z,11.88
2023-04-10T06:10:43.508Z,12.73
2023-04-10T06:13:12.196Z,12.20
2023-04-10T06:15:39.526Z,11.68
2023-04-10T06:18:07.597Z,12.00
2023-04-10T06:20:37.995Z,11.13
2023-04-10T06:23:05.917Z,10.82
2023-04-10T06:25:33.286Z,11.25
2023-04-10T06:28:00.805Z,11.13
2023-04-10T06:30:28.285Z,10.63
2023-04-10T06:32:55.859Z,11.68
2023-04-10T06:35:23.909Z,10.50
2023-04-10T06:37:51.264Z,10.73
2023-04-10T06:40:18.809Z,11.15
2023-04-10T06:42:46.208Z,11.68
2023-04-10T06:45:21.595Z,10.60
2023-04-10T06:47:48.971Z,10.48
2023-04-10T06:50:16.366Z,11.25
2023-04-10T06:52:45.146Z,11.27
2023-04-10T06:55:15.181Z,9.68
2023-04-10T06:57:42.549Z,10.60
2023-04-10T07:00:10.465Z,10.45
2023-04-10T07:02:37.866Z,11.95
2023-04-10T07:05:05.596Z,10.60
2023-04-10T07:07:32.952Z,10.57
2023-04-10T07:10:00.321Z,10.13
2023-04-10T07:12:27.970Z,10.63
2023-04-10T07:14:55.322Z,10.13
2023-04-10T07:17:22.676Z,10.60
2023-04-10T07:19:49.983Z,10.50
2023-04-10T07:22:17.263Z,10.18
2023-04-10T07:24:44.565Z,10.48
2023-04-10T07:27:12.882Z,10.30
2023-04-10T07:29:40.195Z,10.65
2023-04-10T07:32:07.837Z,9.90
2023-04-10T07:34:35.289Z,10.40
2023-04-10T07:37:02.589Z,10.35
2023-04-10T07:39:29.881Z,9.13
2023-04-10T07:41:57.205Z,9.05
2023-04-10T07:44:26.129Z,9.73
2023-04-10T07:46:53.853Z,9.25
2023-04-10T07:49:21.256Z,8.00
2023-04-10T07:51:48.597Z,9.10
2023-04-10T07:54:15.934Z,8.48
2023-04-10T07:56:43.260Z,8.98
2023-04-10T07:59:10.739Z,8.30
2023-04-10T08:01:38.126Z,13.30
2023-04-10T08:04:06.211Z,8.35
2023-04-10T08:06:33.649Z,8.60
2023-04-10T08:09:02.053Z,7.97
2023-04-10T08:11:31.390Z,8.05
2023-04-10T08:14:03.106Z,8.35
2023-04-10T08:16:31.708Z,8.48
2023-04-10T08:18:59.468Z,8.45
2023-04-10T08:21:27.374Z,8.45
2023-04-10T08:23:55.292Z,8.38
2023-04-10T08:26:22.793Z,8.18
2023-04-10T08:28:51.068Z,8.32
2023-04-10T08:31:22.329Z,8.65
2023-04-10T08:33:49.805Z,7.90
2023-04-10T08:36:19.623Z,7.85
2023-04-10T08:38:47.803Z,8.00
2023-04-10T08:41:18.719Z,7.82
2023-04-10T08:43:46.547Z,7.45
2023-04-10T08:46:14.829Z,7.28
2023-04-10T08:48:54.313Z,7.50
2023-04-10T08:51:26.341Z,7.68
2023-04-10T08:54:03.328Z,7.03
2023-04-10T08:56:31.361Z,7.18
2023-04-10T08:58:58.661Z,7.50
2023-04-10T09:01:26.050Z,7.15
2023-04-10T09:03:53.504Z,7.20
2023-04-10T09:06:20.970Z,7.50
2023-04-10T09:08:48.267Z,8.20
2023-04-10T09:11:15.634Z,7.63
2023-04-10T09:13:44.077Z,6.90
2023-04-10T09:16:11.874Z,6.63
2023-04-10T09:18:42.666Z,7.05
2023-04-10T09:21:15.349Z,7.30
2023-04-10T09:23:44.330Z,6.72
2023-04-10T09:26:33.998Z,6.90
2023-04-10T09:29:04.834Z,6.72
2023-04-10T09:31:33.898Z,6.72
2023-04-10T09:34:23.031Z,7.20
2023-04-10T09:36:54.321Z,7.25
2023-04-10T09:39:21.875Z,6.80
2023-04-10T09:41:53.004Z,6.60
2023-04-10T09:44:31.836Z,6.07
2023-04-10T09:46:59.848Z,6.38
2023-04-10T09:49:27.320Z,6.13
2023-04-10T09:51:54.665Z,6.68
2023-04-10T09:54:35.327Z,5.80
2023-04-10T09:57:02.673Z,5.55
2023-04-10T09:59:29.964Z,5.93
2023-04-10T10:01:57.390Z,5.88
2023-04-10T10:04:24.735Z,5.95
2023-04-10T10:06:52.029Z,5.25
2023-04-10T10:09:19.319Z,5.55
2023-04-10T10:11:46.639Z,5.10
2023-04-10T10:14:15.697Z,5.35
2023-04-10T10:16:47.857Z,5.05
2023-04-10T10:19:21.597Z,5.13
2023-04-10T10:21:48.933Z,5.93
2023-04-10T10:24:16.633Z,5.57
2023-04-10T10:26:43.921Z,5.78
2023-04-10T10:29:11.459Z,5.10
2023-04-10T10:31:39.010Z,5.10
2023-04-10T10:34:09.280Z,5.32
2023-04-10T10:36:37.125Z,8.57
2023-04-10T10:39:18.210Z,5.60
2023-04-10T10:42:15.621Z,6.18
2023-04-10T10:44:44.294Z,5.30
2023-04-10T10:47:27.458Z,5.10
2023-04-10T10:49:55.636Z,4.78
2023-04-10T10:52:42.773Z,5.70
2023-04-10T10:55:28.191Z,4.82
2023-04-10T10:57:56.837Z,5.88
2023-04-10T11:00:25.052Z,6.18
2023-04-10T11:03:07.719Z,6.13
2023-04-10T11:05:58.596Z,5.20
2023-04-10T11:08:44.116Z,4.57
2023-04-10T11:11:24.512Z,4.72
2023-04-10T11:13:52.166Z,4.65
2023-04-10T11:16:23.603Z,4.85
2023-04-10T11:18:59.177Z,3.70
2023-04-10T11:21:58.367Z,4.25
2023-04-10T11:24:25.643Z,5.13
2023-04-10T11:26:52.984Z,5.22
2023-04-10T11:29:29.369Z,4.88
2023-04-10T11:32:01.428Z,4.70
2023-04-10T11:34:30.774Z,5.10
2023-04-10T11:36:58.148Z,4.78
2023-04-10T11:39:26.488Z,5.13
2023-04-10T11:41:54.294Z,5.50
2023-04-10T11:44:32.508Z,4.80
2023-04-10T11:46:59.918Z,4.75
2023-04-10T11:49:29.796Z,5.03
2023-04-10T11:51:57.233Z,5.35
2023-04-10T11:54:25.803Z,5.15
2023-04-10T11:57:03.100Z,4.63
2023-04-10T11:59:31.410Z,4.45
2023-04-10T12:02:09.876Z,5.35
2023-04-10T12:04:37.972Z,4.55
2023-04-10T12:07:05.490Z,4.70
2023-04-10T12:09:32.858Z,4.78
2023-04-10T12:12:01.534Z,4.70
2023-04-10T12:14:42.193Z,4.65
2023-04-10T12:17:11.104Z,4.25
2023-04-10T12:19:38.685Z,4.30
2023-04-10T12:22:06.722Z,4.25
2023-04-10T12:24:44.438Z,4.00
2023-04-10T12:27:21.668Z,4.05
2023-04-10T12:29:50.202Z,4.80
2023-04-10T12:32:17.629Z,4.78
2023-04-10T12:34:51.877Z,4.10
2023-04-10T12:37:20.176Z,4.32
2023-04-10T12:39:47.465Z,3.50
2023-04-10T12:42:26.233Z,4.30
2023-04-10T12:44:58.783Z,4.05
2023-04-10T12:47:28.361Z,4.32
2023-04-10T12:50:04.579Z,4.55
2023-04-10T12:52:31.974Z,4.10
2023-04-10T12:55:18.295Z,4.03
2023-04-10T12:57:47.506Z,4.28
2023-04-10T13:00:17.043Z,4.20
2023-04-10T13:02:44.804Z,4.20
2023-04-10T13:05:12.442Z,4.05
2023-04-10T13:07:40.137Z,4.05
2023-04-10T13:10:08.258Z,4.22
2023-04-10T13:12:36.369Z,4.10
2023-04-10T13:15:03.971Z,3.63
2023-04-10T13:17:31.419Z,3.55
2023-04-10T13:19:58.772Z,3.90
2023-04-10T13:22:26.122Z,3.55
2023-04-10T13:24:53.539Z,3.97
2023-04-10T13:27:20.914Z,4.18
2023-04-10T13:29:48.344Z,3.67
2023-04-10T13:32:15.658Z,4.22
2023-04-10T13:34:43.034Z,3.85
2023-04-10T13:37:13.185Z,3.63
2023-04-10T13:39:40.574Z,3.55
2023-04-10T13:42:07.945Z,3.88
2023-04-10T13:44:35.379Z,3.78
2023-04-10T13:47:02.851Z,3.47
2023-04-10T13:49:33.151Z,3.83
2023-04-10T13:52:00.536Z,3.90
2023-04-10T13:54:28.237Z,3.60
2023-04-10T13:56:56.098Z,3.63
2023-04-10T13:59:23.457Z,3.33
2023-04-10T14:01:53.543Z,3.65
2023-04-10T14:04:21.180Z,3.60
2023-04-10T14:06:49.438Z,3.88
2023-04-10T14:09:18.746Z,3.50
2023-04-10T14:11:46.094Z,3.45
2023-04-10T14:14:13.441Z,3.78
2023-04-10T14:16:40.841Z,3.70
2023-04-10T14:19:08.209Z,4.13
2023-04-10T14:21:36.200Z,3.53
2023-04-10T14:24:03.739Z,3.55
2023-04-10T14:26:31.096Z,3.90
2023-04-10T14:28:58.490Z,3.28
2023-04-10T14:31:27.737Z,3.45
2023-04-10T14:33:56.441Z,3.80
2023-04-10T14:36:23.877Z,3.83
2023-04-10T14:38:51.377Z,3.50
2023-04-10T14:41:18.922Z,4.13
2023-04-10T14:43:46.197Z,4.25
2023-04-10T14:46:13.551Z,3.38
2023-04-10T14:48:41.042Z,3.55
2023-04-10T14:51:12.870Z,3.30
2023-04-10T14:53:40.297Z,3.20
2023-04-10T14:56:14.741Z,3.60
2023-04-10T15:01:13.265Z,3.40
2023-04-10T15:03:40.736Z,3.80
2023-04-10T15:06:08.260Z,3.60
2023-04-10T15:08:35.745Z,3.72
2023-04-10T15:11:05.204Z,4.15
2023-04-10T15:13:32.692Z,3.60
2023-04-10T15:16:00.578Z,3.40
2023-04-10T15:18:28.035Z,3.90
2023-04-10T15:20:56.036Z,5.35
2023-04-10T15:23:23.466Z,3.53
2023-04-10T15:25:51.060Z,4.03
2023-04-10T15:28:18.410Z,3.97
2023-04-10T15:30:46.025Z,4.25
2023-04-10T15:33:13.367Z,3.80
2023-04-10T15:35:40.842Z,3.85
2023-04-10T15:38:10.098Z,3.85
2023-04-10T15:40:37.592Z,3.67
2023-04-10T15:43:04.904Z,4.00
2023-04-10T15:45:32.293Z,3.50
2023-04-10T15:48:01.284Z,3.30
2023-04-10T15:50:28.776Z,3.72
2023-04-10T15:52:56.098Z,3.53
2023-04-10T15:55:23.416Z,3.33
2023-04-10T15:57:50.797Z,3.30
2023-04-10T16:00:18.437Z,3.55
2023-04-10T16:02:46.056Z,3.72
2023-04-10T16:05:13.544Z,4.68
2023-04-10T16:07:42.153Z,3.60
2023-04-10T16:10:09.754Z,3.85
2023-04-10T16:12:37.193Z,3.45
2023-04-10T16:15:05.872Z,3.28
2023-04-10T16:17:33.220Z,3.60
2023-04-10T16:20:00.895Z,3.65
2023-04-10T16:22:28.319Z,3.00
2023-04-10T16:24:56.652Z,3.80
2023-04-10T16:27:24.083Z,4.32
2023-04-10T16:29:51.440Z,3.63
2023-04-10T16:32:19.491Z,3.70
2023-04-10T16:34:47.066Z,3.42
2023-04-10T16:37:14.422Z,4.78
2023-04-10T16:39:41.753Z,3.95
2023-04-10T16:42:09.146Z,3.97
2023-04-10T16:44:36.505Z,3.80
2023-04-10T16:47:04.063Z,3.65
2023-04-10T16:49:31.598Z,4.25
2023-04-10T16:51:58.942Z,4.28
2023-04-10T16:54:26.258Z,4.18
2023-04-10T16:56:53.581Z,4.45
2023-04-10T16:59:20.981Z,4.25
2023-04-10T17:01:48.320Z,4.70
2023-04-10T17:04:18.071Z,5.53
2023-04-10T17:06:45.390Z,4.00
2023-04-10T17:09:12.720Z,4.38
2023-04-10T17:11:40.072Z,4.00
2023-04-10T17:14:08.111Z,4.20
2023-04-10T17:16:35.477Z,4.75
2023-04-10T17:19:02.859Z,4.38
2023-04-10T17:21:31.379Z,4.38
2023-04-10T17:23:58.834Z,4.32
2023-04-10T17:26:26.188Z,4.38
2023-04-10T17:28:53.692Z,4.22
2023-04-10T17:31:21.483Z,4.88
2023-04-10T17:33:48.879Z,4.78
2023-04-10T17:36:16.261Z,4.80
2023-04-10T17:38:43.647Z,4.32
2023-04-10T17:41:11.583Z,4.53
2023-04-10T17:43:39.009Z,5.30
2023-04-10T17:46:06.798Z,4.90
2023-04-10T17:48:34.550Z,5.13
2023-04-10T17:51:06.798Z,4.65
2023-04-10T17:53:34.209Z,4.75
2023-04-10T17:56:02.047Z,4.55
2023-04-10T17:58:29.464Z,4.80
2023-04-10T18:00:56.959Z,4.78
2023-04-10T18:03:24.415Z,5.13
2023-04-10T18:05:51.772Z,4.95
2023-04-10T18:08:19.113Z,4.80
2023-04-10T18:10:46.603Z,5.15
2023-04-10T18:13:13.884Z,4.45
2023-04-10T18:15:41.246Z,4.68
2023-04-10T18:18:08.655Z,4.80
2023-04-10T18:20:36.017Z,4.43
2023-04-10T18:23:04.589Z,4.65
2023-04-10T18:25:32.152Z,4.80
2023-04-10T18:28:13.653Z,4.53
2023-04-10T18:30:42.352Z,4.70
2023-04-10T18:33:11.515Z,4.68
2023-04-10T18:35:39.216Z,4.82
2023-04-10T18:38:06.761Z,4.90
2023-04-10T18:40:35.524Z,4.88
2023-04-10T18:43:02.807Z,4.88
2023-04-10T18:45:31.045Z,5.03
2023-04-10T18:47:58.401Z,5.10
2023-04-10T18:50:25.813Z,6.60
2023-04-10T18:52:53.126Z,5.53
2023-04-10T18:55:21.055Z,5.10
2023-04-10T18:57:48.379Z,5.78
2023-04-10T19:00:15.960Z,5.47
2023-04-10T19:02:43.652Z,5.57
2023-04-10T19:05:14.285Z,5.82
2023-04-10T19:07:47.287Z,5.43
2023-04-10T19:10:20.609Z,5.82
2023-04-10T19:12:49.230Z,5.60
2023-04-10T19:15:16.770Z,8.75
2023-04-10T19:17:44.140Z,5.57
2023-04-10T19:20:11.809Z,5.90
2023-04-10T19:22:39.136Z,5.45
2023-04-10T19:25:06.663Z,6.00
2023-04-10T19:27:33.996Z,6.30
2023-04-10T19:30:01.382Z,5.53
2023-04-10T19:32:28.758Z,5.75
2023-04-10T19:34:56.434Z,6.57
2023-04-10T19:37:23.731Z,6.68
2023-04-10T19:39:51.030Z,6.97
2023-04-10T19:42:18.371Z,6.00
2023-04-10T19:44:45.833Z,6.65
2023-04-10T19:47:13.126Z,6.82
2023-04-10T19:49:40.489Z,6.75
2023-04-10T19:52:08.086Z,6.53
2023-04-10T19:54:35.913Z,6.35
2023-04-10T19:57:03.561Z,6.57
2023-04-10T19:59:31.047Z,6.57
2023-04-10T20:01:58.448Z,6.60
2023-04-10T20:04:25.944Z,6.25
2023-04-10T20:06:53.431Z,6.55
2023-04-10T20:09:20.932Z,6.60
2023-04-10T20:11:48.288Z,6.13
2023-04-10T20:14:15.697Z,6.53
2023-04-10T20:16:43.062Z,6.32
2023-04-10T20:19:10.516Z,6.30
2023-04-10T20:21:37.837Z,6.78
2023-04-10T20:24:05.380Z,6.25
2023-04-10T20:26:33.572Z,6.88
2023-04-10T20:29:01.085Z,6.40
2023-04-10T20:31:28.595Z,6.50
2023-04-10T20:33:55.987Z,6.65
2023-04-10T20:36:23.282Z,6.28
2023-04-10T20:38:50.648Z,6.78
2023-04-10T20:41:18.353Z,6.15
2023-04-10T20:43:45.930Z,6.30
2023-04-10T20:46:13.277Z,6.30
2023-04-10T20:48:40.635Z,6.25
2023-04-10T20:51:09.145Z,6.55
2023-04-10T20:53:36.435Z,6.95
2023-04-10T20:56:06.052Z,6.60
2023-04-10T20:58:33.654Z,6.63
2023-04-10T21:01:01.119Z,7.05
2023-04-10T21:03:28.509Z,7.30
2023-04-10T21:05:56.042Z,6.78
2023-04-10T21:08:23.406Z,7.07
2023-04-10T21:10:51.358Z,6.95
2023-04-10T21:13:18.690Z,6.40
2023-04-10T21:15:46.050Z,6.90
2023-04-10T21:18:13.460Z,6.35
2023-04-10T21:20:40.834Z,6.28
2023-04-10T21:23:08.203Z,7.13
2023-04-10T21:25:35.710Z,6.60
2023-04-10T21:28:03.120Z,6.60
2023-04-10T21:30:30.554Z,6.40
2023-04-10T21:32:57.936Z,6.68
2023-04-10T21:35:25.371Z,6.70
2023-04-10T21:37:57.589Z,6.18
2023-04-10T21:40:26.138Z,5.78
2023-04-10T21:42:55.318Z,5.82
2023-04-10T21:45:23.777Z,6.10
2023-04-10T21:47:51.172Z,6.20
2023-04-10T21:50:21.513Z,6.55
2023-04-10T21:52:48.803Z,6.55
2023-04-10T21:55:16.272Z,6.35
2023-04-10T21:57:43.853Z,6.47
2023-04-10T22:00:13.812Z,6.30
2023-04-10T22:02:41.372Z,6.30
2023-04-10T22:05:08.964Z,6.78
2023-04-10T22:07:36.277Z,6.60
2023-04-10T22:10:03.764Z,7.03
2023-04-10T22:12:31.192Z,6.30
2023-04-10T22:14:58.468Z,9.18
2023-04-10T22:17:25.790Z,8.57
2023-04-10T22:19:53.105Z,7.13
2023-04-10T22:22:21.166Z,6.72
2023-04-10T22:24:48.584Z,6.32
2023-04-10T22:27:15.896Z,6.22
2023-04-10T22:29:47.574Z,6.50
2023-04-10T22:32:17.538Z,6.03
2023-04-10T22:34:44.856Z,6.28
2023-04-10T22:37:12.127Z,5.93
2023-04-10T22:39:39.456Z,5.95
2023-04-10T22:42:06.733Z,5.90
2023-04-10T22:44:34.083Z,6.85
2023-04-10T22:47:01.372Z,6.35
2023-04-10T22:49:28.693Z,6.20
2023-04-10T22:51:56.829Z,5.63
2023-04-10T22:54:24.165Z,5.75
2023-04-10T22:56:52.334Z,5.60
2023-04-10T22:59:19.682Z,5.55
2023-04-10T23:01:47.097Z,5.15
2023-04-10T23:04:14.504Z,5.25
2023-04-10T23:06:41.889Z,5.78
2023-04-10T23:09:09.180Z,5.20
2023-04-10T23:11:36.727Z,5.20
2023-04-10T23:14:04.028Z,5.22
2023-04-10T23:16:31.349Z,4.97
2023-04-10T23:18:58.790Z,5.22
2023-04-10T23:21:27.213Z,5.00
2023-04-10T23:23:54.557Z,5.00
2023-04-10T23:26:21.872Z,5.38
2023-04-10T23:28:49.151Z,5.10
2023-04-10T23:31:16.662Z,4.82
2023-04-10T23:33:44.128Z,4.70
2023-04-10T23:36:11.444Z,4.78
2023-04-10T23:38:38.792Z,4.43
2023-04-10T23:41:07.090Z,4.50
2023-04-10T23:43:34.420Z,4.50
2023-04-10T23:46:01.719Z,4.10
2023-04-10T23:48:29.037Z,4.05
2023-04-10T23:51:06.342Z,3.90
2023-04-10T23:53:33.832Z,3.95
2023-04-10T23:56:01.378Z,4.22
2023-04-10T23:58:28.813Z,4.28
